Flight Track Log - Related Links

Times and Time Zones

All times are in EDT time to prevent confusion due to time zone crossing. See the SWA902 flight status page for this flight to view local times or setup timezone preferences in your user account.

Time Position Orientation Groundspeed Altitude Reporting Facility
EDT Latitude Longitude Course Direction KTS MPH feet Rate Location/Type
Sun 12:51:28 PM 41.7311 -71.4219 66° East 151 174 800  Level Boston Center
Sun 12:52:35 PM 41.7533 -71.3547 66° East 207 238 3,100 2,601 Climbing Boston Center
Sun 12:53:51 PM 41.7150 -71.2664 120° Southeast 222 255 7,000 2,338 Climbing Boston Center
Sun 12:54:51 PM 41.6483 -71.2706 183° South 243 280 8,400 2,200 Climbing Boston Center
Sun 12:55:51 PM 41.5586 -71.2667 178° South 283 326 11,400 2,250 Climbing Boston Center
Sun 12:56:51 PM 41.4628 -71.2600 177° South 332 382 12,900 2,200 Climbing Boston Center
Sun 12:57:51 PM 41.3564 -71.2564 179° South 379 436 15,800 2,000 Climbing Boston Center
Sun 12:58:51 PM 41.2500 -71.2531 179° South 386 444 16,900 1,600 Climbing Boston Center
Sun 12:59:51 PM 41.1567 -71.3042 202° Southwest 386 444 19,000 2,050 Climbing Boston Center
Sun 01:00:51 PM 41.1100 -71.4319 244° Southwest 344 396 21,000 2,200 Climbing Boston Center
Sun 01:01:51 PM 41.0733 -71.5314 244° Southwest 360 414 23,400 2,550 Climbing Boston Center
Sun 01:02:51 PM 40.9972 -71.6619 232° Southwest 376 433 26,100 2,250 Climbing Boston Center
Sun 01:03:51 PM 40.9292 -71.7669 229° Southwest 386 444 27,900 1,850 Climbing Boston Center
Sun 01:04:51 PM 40.8547 -71.8719 227° Southwest 391 450 29,800 2,000 Climbing Boston Center
Sun 01:05:51 PM 40.7803 -71.9686 225° Southwest 386 444 31,900 2,000 Climbing Boston Center
Sun 01:06:51 PM 40.7056 -72.0650 224° Southwest 380 437 33,800 1,650 Climbing Boston Center
Sun 01:07:51 PM 40.6392 -72.1639 229° Southwest 374 430 35,200 1,250 Climbing Boston Center
Sun 01:08:51 PM 40.5683 -72.2625 227° Southwest 374 430 36,300 1,150 Climbing Boston Center
Sun 01:09:51 PM 40.5081 -72.3500 228° Southwest 374 430 37,500 850 Climbing Boston Center
Sun 01:10:51 PM 40.4436 -72.4483 229° Southwest 369 425 38,000 250 Climbing Boston Center
Sun 01:11:51 PM 40.3769 -72.5464 228° Southwest 369 425 38,000  Level Boston Center
Sun 01:12:51 PM 40.3058 -72.6442 226° Southwest 369 425 38,000  Level Boston Center
Sun 01:13:51 PM 40.2389 -72.7444 229° Southwest 369 425 38,000  Level Boston Center
Sun 01:14:51 PM 40.1678 -72.8419 226° Southwest 369 425 38,000  Level Boston Center
Sun 01:16:29 PM 40.0583 -73.0003 228° Southwest 367 422 38,000  Level Washington Center
Sun 01:17:29 PM 39.9875 -73.0975 226° Southwest 367 422 38,000  Level Washington Center
Sun 01:18:29 PM 39.9208 -73.1947 228° Southwest 367 422 38,000  Level Washington Center
Sun 01:19:29 PM 39.8517 -73.2889 226° Southwest 367 422 38,000  Level Washington Center
Sun 01:20:29 PM 39.7847 -73.3828 227° Southwest 367 422 38,000  Level Washington Center
Sun 01:21:29 PM 39.7075 -73.4903 227° Southwest 367 422 38,000  Level Washington Center
Sun 01:22:29 PM 39.6342 -73.5869 225° Southwest 367 422 38,000  Level Washington Center
Sun 01:23:29 PM 39.5750 -73.6719 228° Southwest 367 422 38,000  Level Washington Center
Sun 01:24:29 PM 39.5036 -73.7706 227° Southwest 367 422 38,000  Level Washington Center
Sun 01:25:29 PM 39.4322 -73.8667 226° Southwest 372 428 38,000  Level Washington Center
Sun 01:26:29 PM 39.3606 -73.9650 227° Southwest 372 428 38,000  Level Washington Center
Sun 01:27:29 PM 39.2892 -74.0631 227° Southwest 372 428 38,000  Level Washington Center
Sun 01:28:29 PM 39.2172 -74.1583 226° Southwest 372 428 38,000  Level Washington Center
Sun 01:29:29 PM 39.1456 -74.2561 227° Southwest 377 434 38,000  Level Washington Center
Sun 01:30:29 PM 39.0714 -74.3564 226° Southwest 377 434 38,000  Level Washington Center
Sun 01:31:29 PM 38.9994 -74.4539 227° Southwest 382 440 38,000  Level Washington Center
Sun 01:32:29 PM 38.9253 -74.5483 225° Southwest 382 440 38,000  Level Washington Center
Sun 01:33:29 PM 38.8447 -74.6347 220° Southwest 382 440 38,000  Level Washington Center
Sun 01:34:29 PM 38.7661 -74.7211 221° Southwest 382 440 38,000  Level Washington Center
Sun 01:35:29 PM 38.6792 -74.7992 215° Southwest 382 440 38,000  Level Washington Center
Sun 01:36:29 PM 38.5942 -74.8744 215° Southwest 377 434 38,000  Level Washington Center
Sun 01:37:29 PM 38.5092 -74.9469 214° Southwest 377 434 38,000  Level Washington Center
Sun 01:38:29 PM 38.4239 -75.0219 215° Southwest 377 434 38,000  Level Washington Center
Sun 01:39:29 PM 38.3389 -75.0914 213° Southwest 377 434 38,000  Level Washington Center
Sun 01:40:29 PM 38.2558 -75.1714 217° Southwest 377 434 38,000  Level Washington Center
Sun 01:41:29 PM 38.1706 -75.2431 213° Southwest 377 434 38,000  Level Washington Center
Sun 01:42:29 PM 38.0853 -75.3200 215° Southwest 377 434 38,000  Level Washington Center
Sun 01:43:29 PM 37.9997 -75.3942 214° Southwest 377 434 38,000  Level Washington Center
Sun 01:44:29 PM 37.9125 -75.4681 214° Southwest 377 434 38,000  Level Washington Center
Sun 01:45:29 PM 37.8269 -75.5419 214° Southwest 377 434 38,000  Level Washington Center
Sun 01:46:29 PM 37.7414 -75.6156 214° Southwest 377 434 38,000  Level Washington Center
Sun 01:47:29 PM 37.6581 -75.6864 214° Southwest 377 434 38,000  Level Washington Center
Sun 01:48:29 PM 37.5661 -75.7647 214° Southwest 377 434 38,000  Level Washington Center
Sun 01:49:29 PM 37.4825 -75.8325 213° Southwest 377 434 38,000  Level Washington Center
Sun 01:50:29 PM 37.4011 -75.9031 215° Southwest 372 428 38,000  Level Washington Center
Sun 01:51:29 PM 37.3194 -75.9706 213° Southwest 372 428 38,000  Level Washington Center
Sun 01:52:29 PM 37.2400 -76.0381 214° Southwest 362 417 38,000  Level Washington Center
Sun 01:53:29 PM 37.1583 -76.1078 214° Southwest 362 417 38,000  Level Washington Center
Sun 01:54:29 PM 37.0706 -76.1722 210° Southwest 362 417 38,000 300 Level Washington Center
Sun 01:55:29 PM 36.9867 -76.2444 215° Southwest 362 417 38,600 600 Climbing Washington Center
Sun 01:56:29 PM 36.9008 -76.3139 213° Southwest 367 422 39,200 550 Climbing Washington Center
Sun 01:57:29 PM 36.8147 -76.3858 214° Southwest 372 428 39,700 400 Climbing Washington Center
Sun 01:58:29 PM 36.7267 -76.4600 214° Southwest 377 434 40,000 150 Climbing Washington Center
Sun 01:59:29 PM 36.6383 -76.5367 215° Southwest 382 440 40,000  Level Washington Center
Sun 02:00:29 PM 36.5542 -76.6211 219° Southwest 387 445 40,000  Level Washington Center
Sun 02:01:29 PM 36.4700 -76.7025 218° Southwest 387 445 40,000  Level Washington Center
Sun 02:02:29 PM 36.3881 -76.7839 219° Southwest 387 445 40,000  Level Washington Center
Sun 02:03:29 PM 36.3058 -76.8625 218° Southwest 392 451 40,000  Level Washington Center
Sun 02:04:29 PM 36.2214 -76.9461 219° Southwest 392 451 40,000  Level Washington Center
Sun 02:05:29 PM 36.1392 -77.0272 219° Southwest 392 451 40,000  Level Washington Center
Sun 02:06:29 PM 36.0547 -77.1078 218° Southwest 392 451 40,000  Level Washington Center
Sun 02:07:29 PM 35.9850 -77.1783 219° Southwest 387 445 40,000  Level Washington Center
Sun 02:08:29 PM 35.9003 -77.2614 218° Southwest 387 445 40,000  Level Washington Center
Sun 02:09:29 PM 35.8158 -77.3414 218° Southwest 387 445 40,000  Level Washington Center
Sun 02:10:29 PM 35.7311 -77.4242 218° Southwest 387 445 40,000  Level Washington Center
Sun 02:11:29 PM 35.6442 -77.5064 218° Southwest 393 452 40,000  Level Washington Center
Sun 02:12:29 PM 35.5594 -77.5886 218° Southwest 393 452 40,000  Level Washington Center
Sun 02:13:29 PM 35.4789 -77.6658 218° Southwest 398 458 40,000  Level Washington Center
Sun 02:14:29 PM 35.3919 -77.7450 217° Southwest 398 458 40,000  Level Washington Center
Sun 02:15:29 PM 35.3069 -77.8242 217° Southwest 398 458 40,000  Level Washington Center
Sun 02:16:29 PM 35.2219 -77.9056 218° Southwest 398 458 40,000  Level Washington Center
Sun 02:17:29 PM 35.1369 -77.9872 218° Southwest 398 458 40,000  Level Washington Center
Sun 02:18:29 PM 35.0517 -78.0683 218° Southwest 398 458 40,000  Level Washington Center
Sun 02:19:29 PM 34.9644 -78.1517 218° Southwest 398 458 40,000  Level Washington Center
Sun 02:20:29 PM 34.8728 -78.2350 217° Southwest 398 458 40,000  Level Washington Center
Sun 02:23:56 PM 34.5781 -78.5125 218° Southwest 399 459 40,000  Level Jacksonville Center
Sun 02:24:57 PM 34.4911 -78.5900 216° Southwest 399 459 40,000  Level Jacksonville Center
Sun 02:25:56 PM 34.4083 -78.6747 220° Southwest 404 465 40,000  Level Jacksonville Center
Sun 02:26:56 PM 34.3233 -78.7517 217° Southwest 404 465 40,000  Level Jacksonville Center
Sun 02:27:56 PM 34.2383 -78.8311 218° Southwest 404 465 40,000  Level Jacksonville Center
Sun 02:28:56 PM 34.1533 -78.9078 217° Southwest 399 459 40,000  Level Jacksonville Center
Sun 02:29:56 PM 34.0681 -78.9869 218° Southwest 399 459 40,000  Level Jacksonville Center
Sun 02:30:57 PM 33.9808 -79.0658 217° Southwest 399 459 40,000  Level Jacksonville Center
Sun 02:31:56 PM 33.8956 -79.1422 217° Southwest 399 459 40,000  Level Jacksonville Center
Sun 02:32:56 PM 33.8100 -79.2208 217° Southwest 399 459 40,000  Level Jacksonville Center
Sun 02:33:56 PM 33.7247 -79.2967 216° Southwest 399 459 40,000  Level Jacksonville Center
Sun 02:34:56 PM 33.6331 -79.3778 216° Southwest 393 452 40,000  Level Jacksonville Center
Sun 02:35:56 PM 33.5475 -79.4561 217° Southwest 388 447 40,000  Level Jacksonville Center
Sun 02:36:56 PM 33.4642 -79.5314 217° Southwest 388 447 40,000  Level Jacksonville Center
Sun 02:37:56 PM 33.3783 -79.6092 217° Southwest 388 447 40,000  Level Jacksonville Center
Sun 02:38:56 PM 33.2928 -79.6844 216° Southwest 383 441 40,000  Level Jacksonville Center
Sun 02:39:56 PM 33.2089 -79.7594 217° Southwest 383 441 40,000  Level Jacksonville Center
Sun 02:40:56 PM 33.1211 -79.8369 216° Southwest 383 441 40,000  Level Jacksonville Center
Sun 02:41:56 PM 33.0353 -79.9117 216° Southwest 383 441 40,000  Level Jacksonville Center
Sun 02:42:56 PM 32.9472 -79.9889 216° Southwest 383 441 40,000  Level Jacksonville Center
Sun 02:43:56 PM 32.8700 -80.0756 223° Southwest 383 441 40,000  Level Jacksonville Center
Sun 02:44:56 PM 32.8114 -80.1639 232° Southwest 383 441 40,000  Level Jacksonville Center
Sun 02:45:56 PM 32.7489 -80.2644 234° Southwest 388 447 40,000  Level Jacksonville Center
Sun 02:46:57 PM 32.6861 -80.3628 233° Southwest 388 447 40,000  Level Jacksonville Center
Sun 02:47:56 PM 32.6256 -80.4606 234° Southwest 383 441 40,000  Level Jacksonville Center
Sun 02:48:56 PM 32.5606 -80.5583 232° Southwest 383 441 40,000  Level Jacksonville Center
Sun 02:49:56 PM 32.4975 -80.6586 233° Southwest 383 441 40,000  Level Jacksonville Center
Sun 02:50:56 PM 32.4344 -80.7561 233° Southwest 383 441 40,000  Level Jacksonville Center
Sun 02:51:57 PM 32.3694 -80.8633 234° Southwest 377 434 40,000  Level Jacksonville Center
Sun 02:52:56 PM 32.3022 -80.9631 231° Southwest 377 434 40,000  Level Jacksonville Center
Sun 02:53:56 PM 32.2469 -81.0503 233° Southwest 382 440 40,000  Level Jacksonville Center
Sun 02:54:57 PM 32.1775 -81.1522 231° Southwest 382 440 40,000  Level Jacksonville Center
Sun 02:55:56 PM 32.1036 -81.2419 226° Southwest 382 440 40,000  Level Jacksonville Center
Sun 02:56:56 PM 32.0211 -81.3244 220° Southwest 382 440 40,000  Level Jacksonville Center
Sun 02:57:57 PM 31.9303 -81.4139 220° Southwest 388 447 40,000  Level Jacksonville Center
Sun 02:58:56 PM 31.8519 -81.4911 220° Southwest 388 447 40,000  Level Jacksonville Center
Sun 02:59:56 PM 31.7775 -81.5656 220° Southwest 382 440 40,000  Level Jacksonville Center
Sun 03:00:57 PM 31.6908 -81.6522 220° Southwest 377 434 40,000 -350 Level Jacksonville Center
Sun 03:01:56 PM 31.6203 -81.7192 219° Southwest 376 433 39,300 -857 Descending Jacksonville Center
Sun 03:02:56 PM 31.5186 -81.7886 210° Southwest 376 433 38,300 -645 Descending Jacksonville Center
Sun 03:03:57 PM 31.4083 -81.8239 195° South 408 470 38,000 -150 Descending Jacksonville Center
Sun 03:04:56 PM 31.3000 -81.8642 198° South 413 475 38,000 -151 Level Jacksonville Center
Sun 03:05:56 PM 31.1897 -81.8994 195° South 413 475 37,700 -645 Descending Jacksonville Center
Sun 03:06:57 PM 31.0833 -81.9344 196° South 406 467 36,700 -950 Descending Jacksonville Center
Sun 03:07:56 PM 30.9814 -81.9694 196° South 411 473 35,800 -1,008 Descending Jacksonville Center
Sun 03:08:56 PM 30.8731 -82.0067 196° South 417 480 34,700 -893 Descending Jacksonville Center
Sun 03:09:57 PM 30.7647 -82.0392 194° South 412 474 34,000 -350 Descending Jacksonville Center
Sun 03:10:56 PM 30.6564 -82.0739 195° South 412 474 34,000  Level Jacksonville Center
Sun 03:11:56 PM 30.5439 -82.1039 193° South 412 474 34,000  Level Jacksonville Center
Sun 03:12:57 PM 30.4333 -82.1433 197° South 412 474 34,000 -50 Level Jacksonville Center
Sun 03:13:56 PM 30.3231 -82.1803 196° South 417 480 33,900 -555 Descending Jacksonville Center
Sun 03:14:56 PM 30.2125 -82.2147 195° South 417 480 32,900 -992 Descending Jacksonville Center
Sun 03:15:57 PM 30.0936 -82.2131 179° South 417 480 31,900 -992 Descending Jacksonville Center
Sun 03:16:57 PM 29.9722 -82.1947 173° South 422 486 30,900 -1,008 Descending Jacksonville Center
Sun 03:17:56 PM 29.8553 -82.1694 169° South 427 491 29,900 -1,462 Descending Jacksonville Center
Sun 03:18:56 PM 29.7403 -82.1439 169° South 427 491 28,000 -1,500 Descending Jacksonville Center
Sun 03:19:56 PM 29.6275 -82.1183 169° South 427 491 26,900 -1,800 Descending Jacksonville Center
Sun 03:20:56 PM 29.5167 -82.0883 167° South 422 486 24,400 -2,600 Descending Jacksonville Center
Sun 03:21:56 PM 29.4036 -82.0606 168° South 416 479 21,700 -2,300 Descending Jacksonville Center
Sun 03:22:56 PM 29.2803 -82.0331 169° South 411 473 19,800 -2,150 Descending Jacksonville Center
Sun 03:23:56 PM 29.1861 -82.0078 167° South 405 466 17,400 -2,300 Descending Jacksonville Center
Sun 03:24:56 PM 29.0839 -81.9825 168° South 391 450 15,200 -2,150 Descending Jacksonville Center
Sun 03:25:56 PM 28.9856 -81.9597 169° South 376 433 13,100 -2,100 Descending Jacksonville Center
Sun 03:26:56 PM 28.8850 -81.9250 163° South 358 412 11,000 -1,050 Descending Jacksonville Center
Sun 03:27:56 PM 28.8011 -81.8786 154° Southeast 341 392 11,000 -150 Level Jacksonville Center
Sun 03:28:56 PM 28.7236 -81.8319 152° Southeast 330 380 10,700 -831 Descending Jacksonville Center
Sun 03:30:06 PM 28.6333 -81.7833 155° Southeast 294 338 9,200 -1,154 Descending Orlando TRACON
Sun 03:31:06 PM 28.5667 -81.7500 156° South 277 319 8,200 -778 Descending Orlando TRACON
Sun 03:31:54 PM 28.5167 -81.7167 150° Southeast 241 277 7,800 -600 Descending Orlando TRACON
Sun 03:33:06 PM 28.4500 -81.6833 156° South 238 274 7,000 -304 Descending Orlando TRACON
Sun 03:34:12 PM 28.3667 -81.6500 161° South 240 276 7,100 56 Climbing Orlando TRACON
Sun 03:34:54 PM 28.3333 -81.6333 156° South 239 275 7,100  Level Orlando TRACON
Sun 03:36:12 PM 28.2667 -81.5833 147° Southeast 234 269 7,100 -50 Level Orlando TRACON
Sun 03:36:54 PM 28.2333 -81.5333 127° Southeast 238 274 7,000 -588 Descending Orlando TRACON
Sun 03:37:54 PM 28.2333 -81.4667 90° East 228 262 6,100 -1,524 Descending Orlando TRACON
Sun 03:39:00 PM 28.2167 -81.3833 103° East 217 250 3,800 -2,100 Descending Orlando TRACON
Sun 03:39:54 PM 28.2167 -81.3167 90° East 213 245 1,900 -1,200 Descending Orlando TRACON
Sun 03:41:00 PM 28.2667 -81.3000 16° North 161 185 1,400 -143 Descending Orlando TRACON
Sun 03:42:00 PM 28.3167 -81.3000 360° North 168 193 1,600 -53 Climbing Orlando TRACON
Sun 03:42:54 PM 28.3500 -81.3000 360° North 155 178 1,300 -550 Descending Orlando TRACON
Sun 03:44:00 PM 28.3833 -81.3000 360° North 133 153 500 -727 Descending Orlando TRACON
Sun 03:45:00 PM 28.4167 -81.3000 24° Northeast  Level FlightAware Approximate
Sun 03:52:00 PM 28.4294 -81.3090 24° Northeast  Level Estimated
Sun 03:53:00 PM 28.4294 -81.3090 24° Northeast  Level Estimated
Sun 03:54:00 PM 28.4294 -81.3090 24° Northeast  Level Estimated
Sun 03:55:00 PM 28.4294 -81.3090 24° Northeast  Level Estimated
Sun 03:56:00 PM 28.4294 -81.3090 24° Northeast  Level Estimated

Login

Don't have an account? Register now (free) for customized features, flight alerts, and more!